Terminal Aerodrome Forecast
Issued by NWS

Home | Current Version | Previous Version | Text Only | Print | Product List | Glossary On
Versions: 1 2 3 4 5 6 7 8 9 10 11 12 13
000
FTUS45 KABQ 281131
TAFAEG
TAF
KAEG 281131Z 2812/2912 VRB06KT P6SM VCSH SCT012 SCT050 BKN080
     FM281500 VRB06KT P6SM SCT050 SCT120
     FM281800 25006KT P6SM SCT070 SCT120
     FM282100 20006KT P6SM VCTS BKN080CB
     FM290200 13007KT P6SM VCSH BKN100=

USA.gov is the U.S. government's official web portal to all federal, state and local government web resources and services.